createdAt,value
2019-02-10T00:01:47.013Z,4.37
2019-02-10T00:04:15.084Z,4.40
2019-02-10T00:06:43.279Z,5.07
2019-02-10T00:09:11.565Z,4.77
2019-02-10T00:11:39.622Z,4.90
2019-02-10T00:14:07.721Z,4.90
2019-02-10T00:16:36.836Z,4.60
2019-02-10T00:19:04.901Z,4.70
2019-02-10T00:21:34.098Z,4.10
2019-02-10T00:24:02.349Z,4.73
2019-02-10T00:26:30.430Z,4.63
2019-02-10T00:28:59.971Z,4.73
2019-02-10T00:31:28.144Z,4.50
2019-02-10T00:33:57.680Z,4.87
2019-02-10T00:36:33.063Z,5.20
2019-02-10T00:38:56.145Z,4.33
2019-02-10T00:41:24.208Z,5.30
2019-02-10T00:43:52.270Z,5.03
2019-02-10T00:46:20.433Z,4.27
2019-02-10T00:48:48.514Z,5.20
2019-02-10T00:51:17.336Z,4.63
2019-02-10T00:53:45.638Z,4.50
2019-02-10T00:56:13.712Z,4.97
2019-02-10T00:58:41.911Z,4.17
2019-02-10T01:01:10.585Z,4.60
2019-02-10T01:03:38.644Z,4.70
2019-02-10T01:06:06.743Z,4.67
2019-02-10T01:08:34.997Z,4.50
2019-02-10T01:11:04.177Z,4.63
2019-02-10T01:13:32.453Z,4.23
2019-02-10T01:16:00.725Z,4.43
2019-02-10T01:18:28.854Z,5.53
2019-02-10T01:20:57.036Z,5.07
2019-02-10T01:23:25.309Z,4.60
2019-02-10T01:25:53.357Z,4.97
2019-02-10T01:28:21.474Z,4.67
2019-02-10T01:30:50.809Z,5.23
2019-02-10T01:33:18.879Z,4.60
2019-02-10T01:35:47.198Z,4.77
2019-02-10T01:38:15.900Z,4.63
2019-02-10T01:40:43.996Z,4.83
2019-02-10T01:43:12.238Z,5.50
2019-02-10T01:45:42.315Z,5.17
2019-02-10T01:48:10.378Z,4.87
2019-02-10T01:50:39.529Z,4.90
2019-02-10T01:53:07.847Z,4.73
2019-02-10T01:55:37.055Z,4.70
2019-02-10T01:58:06.222Z,5.07
2019-02-10T02:00:35.560Z,4.93
2019-02-10T02:03:03.633Z,4.63
2019-02-10T02:05:33.587Z,5.23
2019-02-10T02:08:02.976Z,5.57
2019-02-10T02:10:31.044Z,4.03
2019-02-10T02:12:59.233Z,4.40
2019-02-10T02:15:28.458Z,5.17
2019-02-10T02:17:57.661Z,5.10
2019-02-10T02:20:26.929Z,4.33
2019-02-10T02:22:55.057Z,4.30
2019-02-10T02:25:24.403Z,4.37
2019-02-10T02:27:52.493Z,4.60
2019-02-10T02:30:22.295Z,4.30
2019-02-10T02:32:50.386Z,4.70
2019-02-10T02:35:18.460Z,4.70
2019-02-10T02:37:48.568Z,4.50
2019-02-10T02:40:18.767Z,4.07
2019-02-10T02:42:47.351Z,4.43
2019-02-10T02:45:15.564Z,4.03
2019-02-10T02:47:44.664Z,4.60
2019-02-10T02:50:14.535Z,4.30
2019-02-10T02:52:42.981Z,3.87
2019-02-10T02:55:11.144Z,4.23
2019-02-10T02:57:39.284Z,4.43
2019-02-10T03:00:07.693Z,3.80
2019-02-10T03:02:35.751Z,4.03
2019-02-10T03:05:03.884Z,4.63
2019-02-10T03:07:32.242Z,4.30
2019-02-10T03:10:00.456Z,4.93
2019-02-10T03:12:28.474Z,3.97
2019-02-10T03:14:56.873Z,3.83
2019-02-10T03:17:24.951Z,4.20
2019-02-10T03:19:54.476Z,4.27
2019-02-10T03:22:22.603Z,3.40
2019-02-10T03:24:50.661Z,4.40
2019-02-10T03:27:18.793Z,3.97
2019-02-10T03:29:47.689Z,4.23
2019-02-10T03:32:15.871Z,4.33
2019-02-10T03:34:44.022Z,4.27
2019-02-10T03:37:13.604Z,4.40
2019-02-10T03:39:41.675Z,4.07
2019-02-10T03:42:10.203Z,4.00
2019-02-10T03:44:39.652Z,4.60
2019-02-10T03:47:07.830Z,4.50
2019-02-10T03:49:35.927Z,4.30
2019-02-10T03:52:04.263Z,3.70
2019-02-10T03:54:32.451Z,4.73
2019-02-10T03:57:02.331Z,4.30
2019-02-10T03:59:30.789Z,4.50
2019-02-10T04:01:59.033Z,4.43
2019-02-10T04:04:27.102Z,3.93
2019-02-10T04:06:55.374Z,3.83
2019-02-10T04:09:23.556Z,4.33
2019-02-10T04:11:51.671Z,4.30
2019-02-10T04:14:21.248Z,4.50
2019-02-10T04:16:49.473Z,3.87
2019-02-10T04:19:17.625Z,3.93
2019-02-10T04:21:45.980Z,4.10
2019-02-10T04:24:15.117Z,4.00
2019-02-10T04:26:44.421Z,3.97
2019-02-10T04:29:12.770Z,3.73
2019-02-10T04:31:40.929Z,3.87
2019-02-10T04:34:09.103Z,3.77
2019-02-10T04:36:37.299Z,4.17
2019-02-10T04:39:05.805Z,3.80
2019-02-10T04:41:33.860Z,3.57
2019-02-10T04:44:02.548Z,4.03
2019-02-10T04:46:31.741Z,3.87
2019-02-10T04:48:59.800Z,4.00
2019-02-10T04:51:28.139Z,4.07
2019-02-10T04:53:56.191Z,4.00
2019-02-10T04:56:24.263Z,4.27
2019-02-10T04:58:52.552Z,3.53
2019-02-10T05:01:20.705Z,3.90
2019-02-10T05:03:48.765Z,3.37
2019-02-10T05:06:16.940Z,4.00
2019-02-10T05:08:45.016Z,4.27
2019-02-10T05:11:13.072Z,3.70
2019-02-10T05:13:41.312Z,4.23
2019-02-10T05:16:10.693Z,4.03
2019-02-10T05:18:38.888Z,4.33
2019-02-10T05:21:06.962Z,3.90
2019-02-10T05:23:35.041Z,4.40
2019-02-10T05:26:03.114Z,3.90
2019-02-10T05:28:31.634Z,4.50
2019-02-10T05:31:01.516Z,4.27
2019-02-10T05:33:30.630Z,4.00
2019-02-10T05:35:59.873Z,3.83
2019-02-10T05:38:27.946Z,3.37
2019-02-10T05:40:57.477Z,4.13
2019-02-10T05:43:25.681Z,3.90
2019-02-10T05:45:54.291Z,3.63
2019-02-10T05:48:24.182Z,3.87
2019-02-10T05:50:52.478Z,3.80
2019-02-10T05:53:20.561Z,3.33
2019-02-10T05:55:48.598Z,3.80
2019-02-10T05:58:17.928Z,3.03
2019-02-10T06:00:46.031Z,3.40
2019-02-10T06:03:14.209Z,3.50
2019-02-10T06:05:43.523Z,3.67
2019-02-10T06:08:13.460Z,3.77
2019-02-10T06:10:41.261Z,3.77
2019-02-10T06:13:09.394Z,3.67
2019-02-10T06:15:37.551Z,3.50
2019-02-10T06:18:05.618Z,3.40
2019-02-10T06:20:33.850Z,3.80
2019-02-10T06:23:01.948Z,4.07
2019-02-10T06:25:31.205Z,3.70
2019-02-10T06:28:00.684Z,3.70
2019-02-10T06:30:28.865Z,3.53
2019-02-10T06:32:57.913Z,4.00
2019-02-10T06:35:26.021Z,3.60
2019-02-10T06:37:54.122Z,3.70
2019-02-10T06:40:23.269Z,3.57
2019-02-10T06:42:52.718Z,3.80
2019-02-10T06:45:20.795Z,3.00
2019-02-10T06:47:50.927Z,3.43
2019-02-10T06:50:19.294Z,3.50
2019-02-10T06:52:47.978Z,3.13
2019-02-10T06:55:16.048Z,4.10
2019-02-10T06:57:44.365Z,3.33
2019-02-10T07:00:30.564Z,3.30
2019-02-10T07:03:21.471Z,3.63
2019-02-10T07:05:49.646Z,3.67
2019-02-10T07:08:17.979Z,3.43
2019-02-10T07:10:46.327Z,3.63
2019-02-10T07:13:18.013Z,3.17
2019-02-10T07:16:03.978Z,3.57
2019-02-10T07:18:49.929Z,3.90
2019-02-10T07:21:20.037Z,3.00
2019-02-10T07:23:57.399Z,3.70
2019-02-10T07:26:43.455Z,3.50
2019-02-10T07:29:29.204Z,3.57
2019-02-10T07:31:58.899Z,3.53
2019-02-10T07:34:48.199Z,3.57
2019-02-10T07:37:36.291Z,3.10
2019-02-10T07:40:23.416Z,3.03
2019-02-10T07:43:13.667Z,3.43
2019-02-10T07:45:55.891Z,3.20
2019-02-10T07:48:39.105Z,3.00
2019-02-10T07:51:16.268Z,3.20
2019-02-10T07:54:03.656Z,2.93
2019-02-10T07:56:50.161Z,3.77
2019-02-10T08:02:10.692Z,3.20
2019-02-10T08:05:08.937Z,3.03
2019-02-10T08:08:22.123Z,2.87
2019-02-10T08:11:15.510Z,3.20
2019-02-10T08:14:06.312Z,3.53
2019-02-10T08:17:09.973Z,3.27
2019-02-10T08:20:16.634Z,3.30
2019-02-10T08:23:09.929Z,2.93
2019-02-10T08:26:12.667Z,3.20
2019-02-10T08:29:15.424Z,3.50
2019-02-10T08:32:15.699Z,3.27
2019-02-10T08:35:27.339Z,3.43
2019-02-10T08:38:36.087Z,3.50
2019-02-10T08:41:37.397Z,3.70
2019-02-10T08:44:49.846Z,3.37
2019-02-10T08:48:09.836Z,3.53
2019-02-10T08:51:07.564Z,3.40
2019-02-10T08:53:40.526Z,3.45
2019-02-10T08:56:10.973Z,3.20
2019-02-10T08:58:41.812Z,2.97
2019-02-10T09:01:12.328Z,4.93
2019-02-10T09:03:42.713Z,3.70
2019-02-10T09:06:13.594Z,3.00
2019-02-10T09:08:43.216Z,3.63
2019-02-10T09:11:14.063Z,3.03
2019-02-10T09:13:44.995Z,3.80
2019-02-10T09:16:14.608Z,3.10
2019-02-10T09:18:45.447Z,3.30
2019-02-10T09:21:16.907Z,3.03
2019-02-10T09:23:47.433Z,4.00
2019-02-10T09:26:19.828Z,3.80
2019-02-10T09:28:52.077Z,3.27
2019-02-10T09:31:22.610Z,3.90
2019-02-10T09:33:52.020Z,3.30
2019-02-10T09:36:21.549Z,3.47
2019-02-10T09:38:53.798Z,3.40
2019-02-10T09:41:23.199Z,3.50
2019-02-10T09:43:52.624Z,3.00
2019-02-10T09:46:22.017Z,3.63
2019-02-10T09:48:52.416Z,3.60
2019-02-10T09:51:22.982Z,3.43
2019-02-10T09:53:52.335Z,3.17
2019-02-10T09:56:22.017Z,3.10
2019-02-10T09:58:51.592Z,3.33
2019-02-10T10:01:22.091Z,3.67
2019-02-10T10:03:51.540Z,4.07
2019-02-10T10:06:23.790Z,3.50
2019-02-10T10:08:54.234Z,3.90
2019-02-10T10:11:23.754Z,3.60
2019-02-10T10:13:53.469Z,2.90
2019-02-10T10:16:24.319Z,3.13
2019-02-10T10:18:54.762Z,7.57
2019-02-10T10:21:24.442Z,9.20
2019-02-10T10:23:53.969Z,3.83
2019-02-10T10:26:23.381Z,3.23
2019-02-10T10:28:53.806Z,3.17
2019-02-10T10:31:23.271Z,3.15
2019-02-10T10:33:52.760Z,2.60
2019-02-10T10:36:22.310Z,3.20
2019-02-10T10:38:53.497Z,3.20
2019-02-10T10:41:23.884Z,2.70
2019-02-10T10:43:53.517Z,2.80
2019-02-10T10:46:22.939Z,3.20
2019-02-10T10:48:52.421Z,2.93
2019-02-10T10:51:23.727Z,2.63
2019-02-10T10:53:53.228Z,3.47
2019-02-10T10:56:22.632Z,3.10
2019-02-10T10:58:52.165Z,2.87
2019-02-10T11:01:25.570Z,3.53
2019-02-10T11:03:56.489Z,3.40
2019-02-10T11:06:27.067Z,3.60
2019-02-10T11:08:57.914Z,3.33
2019-02-10T11:11:29.106Z,3.10
2019-02-10T11:13:59.685Z,3.20
2019-02-10T11:16:29.051Z,3.07
2019-02-10T11:19:00.437Z,2.80
2019-02-10T11:21:30.270Z,3.42
2019-02-10T11:23:59.821Z,3.50
2019-02-10T11:26:30.226Z,2.90
2019-02-10T11:29:00.017Z,3.08
2019-02-10T11:31:29.408Z,2.57
2019-02-10T11:33:58.779Z,2.85
2019-02-10T11:36:28.333Z,2.70
2019-02-10T11:38:57.803Z,2.70
2019-02-10T11:41:27.248Z,2.97
2019-02-10T11:43:57.167Z,3.50
2019-02-10T11:46:28.363Z,2.83
2019-02-10T11:48:57.771Z,4.47
2019-02-10T11:51:28.321Z,6.47
2019-02-10T11:54:03.428Z,3.08
2019-02-10T11:56:32.898Z,3.08
2019-02-10T11:59:03.770Z,2.92
2019-02-10T12:01:33.286Z,2.60
2019-02-10T12:04:02.675Z,2.80
2019-02-10T12:06:32.485Z,2.60
2019-02-10T12:09:01.982Z,2.70
2019-02-10T12:11:31.386Z,3.00
2019-02-10T12:14:00.934Z,2.40
2019-02-10T12:16:30.364Z,2.63
2019-02-10T12:18:59.759Z,2.75
2019-02-10T12:21:29.421Z,2.73
2019-02-10T12:23:58.777Z,2.70
2019-02-10T12:26:28.469Z,2.40
2019-02-10T12:28:59.121Z,2.43
2019-02-10T12:31:28.578Z,2.50
2019-02-10T12:33:57.969Z,2.80
2019-02-10T12:36:27.593Z,2.60
2019-02-10T12:38:56.968Z,2.40
2019-02-10T12:41:26.361Z,3.50
2019-02-10T12:43:56.058Z,2.63
2019-02-10T12:46:26.474Z,2.80
2019-02-10T12:48:56.867Z,2.87
2019-02-10T12:51:26.302Z,2.80
2019-02-10T12:53:55.691Z,2.80
2019-02-10T12:56:25.074Z,2.63
2019-02-10T12:58:55.520Z,3.00
2019-02-10T13:01:24.925Z,2.57
2019-02-10T13:03:56.116Z,2.70
2019-02-10T13:06:25.606Z,3.30
2019-02-10T13:08:54.976Z,3.07
2019-02-10T13:11:24.649Z,2.83
2019-02-10T13:13:54.116Z,3.00
2019-02-10T13:16:25.313Z,2.80
2019-02-10T13:18:56.426Z,2.33
2019-02-10T13:21:27.246Z,2.60
2019-02-10T13:23:56.792Z,2.47
2019-02-10T13:26:26.368Z,2.60
2019-02-10T13:28:57.655Z,3.10
2019-02-10T13:31:28.156Z,2.70
2019-02-10T13:33:57.686Z,2.90
2019-02-10T13:36:27.489Z,2.93
2019-02-10T13:38:56.986Z,2.80
2019-02-10T13:41:35.515Z,2.70
2019-02-10T13:44:06.293Z,2.73
2019-02-10T13:46:35.858Z,2.67
2019-02-10T13:49:07.055Z,3.20
2019-02-10T13:51:38.201Z,3.03
2019-02-10T13:54:07.570Z,3.37
2019-02-10T13:56:38.765Z,4.10
2019-02-10T13:59:08.611Z,4.65
2019-02-10T14:01:40.230Z,3.35
2019-02-10T14:04:09.747Z,3.40
2019-02-10T14:06:40.286Z,3.10
2019-02-10T14:09:09.735Z,2.70
2019-02-10T14:11:39.322Z,2.70
2019-02-10T14:14:10.574Z,2.70
2019-02-10T14:16:40.072Z,2.37
2019-02-10T14:19:09.472Z,2.27
2019-02-10T14:21:41.386Z,2.30
2019-02-10T14:24:10.857Z,2.30
2019-02-10T14:26:40.376Z,2.25
2019-02-10T14:29:11.116Z,2.43
2019-02-10T14:31:41.603Z,2.10
2019-02-10T14:34:12.457Z,2.00
2019-02-10T14:36:42.000Z,2.23
2019-02-10T14:39:11.500Z,2.65
2019-02-10T14:41:41.968Z,2.67
2019-02-10T14:44:11.546Z,2.30
2019-02-10T14:46:42.832Z,2.10
2019-02-10T14:49:12.362Z,2.40
2019-02-10T14:51:42.309Z,1.80
2019-02-10T14:54:11.756Z,2.03
2019-02-10T14:56:41.137Z,2.00
2019-02-10T14:59:11.767Z,2.00
2019-02-10T15:01:41.184Z,2.23
2019-02-10T15:04:11.719Z,1.90
2019-02-10T15:06:41.380Z,2.10
2019-02-10T15:09:11.385Z,1.70
2019-02-10T15:11:40.909Z,1.80
2019-02-10T15:14:11.682Z,1.90
2019-02-10T15:16:43.145Z,1.80
2019-02-10T15:19:12.532Z,7.67
2019-02-10T15:21:43.398Z,2.63
2019-02-10T15:24:14.555Z,2.10
2019-02-10T15:26:45.008Z,2.23
2019-02-10T15:29:15.033Z,2.10
2019-02-10T15:31:44.442Z,2.20
2019-02-10T15:34:15.364Z,2.00
2019-02-10T15:36:44.837Z,1.93
2019-02-10T15:39:14.219Z,2.37
2019-02-10T15:41:43.650Z,2.40
2019-02-10T15:44:14.773Z,2.40
2019-02-10T15:46:44.173Z,2.53
2019-02-10T15:49:13.554Z,2.40
2019-02-10T15:51:45.481Z,2.50
2019-02-10T15:54:15.974Z,3.13
2019-02-10T15:56:46.370Z,2.40
2019-02-10T15:59:15.895Z,2.40
2019-02-10T16:01:46.505Z,2.77
2019-02-10T16:04:15.909Z,2.53
2019-02-10T16:06:47.930Z,2.67
2019-02-10T16:09:19.116Z,2.63
2019-02-10T16:11:49.652Z,3.23
2019-02-10T16:14:20.692Z,3.20
2019-02-10T16:16:50.072Z,3.37
2019-02-10T16:19:21.621Z,3.60
2019-02-10T16:21:51.241Z,4.40
2019-02-10T16:24:20.632Z,4.17
2019-02-10T16:26:50.145Z,4.00
2019-02-10T16:29:20.676Z,4.00
2019-02-10T16:31:50.189Z,3.97
2019-02-10T16:34:21.386Z,4.12
2019-02-10T16:36:52.084Z,4.00
2019-02-10T16:39:21.464Z,4.50
2019-02-10T16:41:51.003Z,3.90
2019-02-10T16:44:20.716Z,3.80
2019-02-10T16:46:50.129Z,3.77
2019-02-10T16:49:19.638Z,3.83
2019-02-10T16:51:49.339Z,3.83
2019-02-10T16:54:18.751Z,4.00
2019-02-10T16:56:49.663Z,3.73
2019-02-10T16:59:19.155Z,3.97
2019-02-10T17:01:48.525Z,3.73
2019-02-10T17:04:18.951Z,3.80
2019-02-10T17:06:48.641Z,4.47
2019-02-10T17:09:19.394Z,3.60
2019-02-10T17:11:50.023Z,3.50
2019-02-10T17:14:19.751Z,3.20
2019-02-10T17:16:49.138Z,3.30
2019-02-10T17:19:19.569Z,3.13
2019-02-10T17:21:49.895Z,3.10
2019-02-10T17:24:20.493Z,3.17
2019-02-10T17:26:50.049Z,3.30
2019-02-10T17:29:20.650Z,3.03
2019-02-10T17:31:52.943Z,3.30
2019-02-10T17:34:24.144Z,2.95
2019-02-10T17:36:53.801Z,3.23
2019-02-10T17:39:26.019Z,3.30
2019-02-10T17:41:57.212Z,3.70
2019-02-10T17:44:28.511Z,3.10
2019-02-10T17:46:58.918Z,3.73
2019-02-10T17:49:28.395Z,4.50
2019-02-10T17:51:57.809Z,3.10
2019-02-10T17:54:27.185Z,2.90
2019-02-10T17:56:59.118Z,2.80
2019-02-10T17:59:30.851Z,2.93
2019-02-10T18:02:01.591Z,2.80
2019-02-10T18:04:37.349Z,3.17
2019-02-10T18:07:03.355Z,3.20
2019-02-10T18:09:32.875Z,2.85
2019-02-10T18:12:02.368Z,2.63
2019-02-10T18:14:47.441Z,2.62
2019-02-10T18:17:41.832Z,2.27
2019-02-10T18:20:26.874Z,2.17
2019-02-10T18:23:22.899Z,2.20
2019-02-10T18:26:27.762Z,2.20
2019-02-10T18:29:16.794Z,2.27
2019-02-10T18:32:01.203Z,2.27
2019-02-10T18:34:44.218Z,2.40
2019-02-10T18:37:33.598Z,2.20
2019-02-10T18:40:20.510Z,2.25
2019-02-10T18:43:08.223Z,2.00
2019-02-10T18:45:58.288Z,2.03
2019-02-10T18:48:52.979Z,2.12
2019-02-10T18:51:32.110Z,2.40
2019-02-10T18:54:19.775Z,2.30
2019-02-10T18:57:06.525Z,2.33
2019-02-10T18:59:48.391Z,2.60
2019-02-10T19:02:32.437Z,2.90
2019-02-10T19:05:23.666Z,3.22
2019-02-10T19:08:03.851Z,3.30
2019-02-10T19:11:00.219Z,3.10
2019-02-10T19:13:39.872Z,2.80
2019-02-10T19:16:25.753Z,3.07
2019-02-10T19:19:19.065Z,2.53
2019-02-10T19:22:09.204Z,2.73
2019-02-10T19:25:00.640Z,2.80
2019-02-10T19:27:37.901Z,3.30
2019-02-10T19:30:34.654Z,3.10
2019-02-10T19:33:23.565Z,3.22
2019-02-10T19:36:11.119Z,4.20
2019-02-10T19:38:54.471Z,3.73
2019-02-10T19:41:38.638Z,4.20
2019-02-10T19:44:16.868Z,4.87
2019-02-10T19:47:01.002Z,5.27
2019-02-10T19:49:49.461Z,4.93
2019-02-10T19:52:30.105Z,5.10
2019-02-10T19:55:18.659Z,5.47
2019-02-10T19:58:10.820Z,5.73
2019-02-10T20:00:59.936Z,5.25
2019-02-10T20:03:41.099Z,4.78
2019-02-10T20:06:32.659Z,5.13
2019-02-10T20:09:20.143Z,3.90
2019-02-10T20:12:08.780Z,3.00
2019-02-10T20:14:51.778Z,3.17
2019-02-10T20:17:47.356Z,1.97
2019-02-10T20:20:42.580Z,1.70
2019-02-10T20:23:38.212Z,1.70
2019-02-10T20:26:26.544Z,1.60
2019-02-10T20:29:21.974Z,1.43
2019-02-10T20:32:17.581Z,1.30
2019-02-10T20:35:12.933Z,1.30
2019-02-10T20:37:50.433Z,1.10
2019-02-10T20:40:28.791Z,1.23
2019-02-10T20:43:06.639Z,1.07
2019-02-10T20:45:47.994Z,1.00
2019-02-10T20:48:29.895Z,1.10
2019-02-10T20:51:21.329Z,1.02
2019-02-10T20:54:01.487Z,0.70
2019-02-10T20:56:50.103Z,0.80
2019-02-10T20:59:34.581Z,0.83
2019-02-10T21:02:24.429Z,1.00
2019-02-10T21:04:59.150Z,0.90
2019-02-10T21:07:39.215Z,0.90
2019-02-10T21:10:30.588Z,0.95
2019-02-10T21:13:15.580Z,1.10
2019-02-10T21:16:02.257Z,1.30
2019-02-10T21:19:05.053Z,1.20
2019-02-10T21:22:02.741Z,1.17
2019-02-10T21:24:42.849Z,1.25
2019-02-10T21:27:37.031Z,1.20
2019-02-10T21:30:44.807Z,1.20
2019-02-10T21:33:30.985Z,1.20
2019-02-10T21:36:27.226Z,1.13
2019-02-10T21:39:13.262Z,1.10
2019-02-10T21:41:56.662Z,1.30
2019-02-10T21:45:04.762Z,1.30
2019-02-10T21:47:44.561Z,1.30
2019-02-10T21:50:14.044Z,1.57
2019-02-10T21:52:44.544Z,1.80
2019-02-10T21:55:14.212Z,1.93
2019-02-10T21:57:43.654Z,1.60
2019-02-10T22:00:14.010Z,2.40
2019-02-10T22:02:43.477Z,2.60
2019-02-10T22:05:12.870Z,2.23
2019-02-10T22:07:45.261Z,2.20
2019-02-10T22:10:15.965Z,2.60
2019-02-10T22:12:45.365Z,2.67
2019-02-10T22:15:16.182Z,2.40
2019-02-10T22:17:47.585Z,2.50
2019-02-10T22:20:18.805Z,2.53
2019-02-10T22:22:48.195Z,2.80
2019-02-10T22:25:19.367Z,2.87
2019-02-10T22:27:50.539Z,2.73
2019-02-10T22:30:21.051Z,3.20
2019-02-10T22:32:50.578Z,2.75
2019-02-10T22:35:19.960Z,3.30
2019-02-10T22:37:49.909Z,3.10
2019-02-10T22:40:21.423Z,3.20
2019-02-10T22:42:52.031Z,3.30
2019-02-10T22:45:21.568Z,3.60
2019-02-10T22:47:52.128Z,4.47
2019-02-10T22:50:21.556Z,4.50
2019-02-10T22:52:52.776Z,4.47
2019-02-10T22:55:22.240Z,4.93
2019-02-10T22:57:53.607Z,5.50
2019-02-10T23:00:50.426Z,5.43
2019-02-10T23:03:21.084Z,5.70
2019-02-10T23:05:50.590Z,6.35
2019-02-10T23:08:20.221Z,7.20
2019-02-10T23:10:49.816Z,7.57
2019-02-10T23:13:20.675Z,8.50
2019-02-10T23:15:52.235Z,7.97
2019-02-10T23:18:22.649Z,7.33
2019-02-10T23:20:52.289Z,7.63
2019-02-10T23:23:21.742Z,7.40
2019-02-10T23:25:52.956Z,6.97
2019-02-10T23:28:22.458Z,7.00
2019-02-10T23:30:52.032Z,6.30
2019-02-10T23:33:22.523Z,6.47
2019-02-10T23:35:52.083Z,5.87
2019-02-10T23:38:21.798Z,6.03
2019-02-10T23:40:53.443Z,5.40
2019-02-10T23:43:23.790Z,5.92
2019-02-10T23:45:53.941Z,5.28
2019-02-10T23:48:23.775Z,4.85
2019-02-10T23:50:53.613Z,5.20
2019-02-10T23:53:23.860Z,4.70
2019-02-10T23:55:53.720Z,4.67
2019-02-10T23:58:23.743Z,4.28
